createdAt,value
2019-01-09T00:03:04.951Z,1.40
2019-01-09T00:08:07.071Z,1.33
2019-01-09T00:13:09.108Z,1.70
2019-01-09T00:18:11.272Z,1.63
2019-01-09T00:23:13.366Z,1.50
2019-01-09T00:28:15.498Z,1.73
2019-01-09T00:33:17.528Z,1.83
2019-01-09T00:38:19.560Z,2.00
2019-01-09T00:43:21.675Z,2.07
2019-01-09T00:48:23.695Z,1.60
2019-01-09T00:53:25.796Z,1.90
2019-01-09T00:58:28.053Z,1.70
2019-01-09T01:04:10.379Z,1.90
2019-01-09T01:09:52.215Z,2.40
2019-01-09T01:15:24.810Z,2.60
2019-01-09T01:20:36.191Z,2.40
2019-01-09T01:26:15.440Z,2.40
2019-01-09T01:31:47.267Z,2.77
2019-01-09T01:37:30.036Z,2.63
2019-01-09T01:43:01.027Z,2.93
2019-01-09T01:48:18.046Z,2.90
2019-01-09T01:53:33.334Z,2.73
2019-01-09T01:58:53.257Z,3.17
2019-01-09T02:04:32.280Z,3.43
2019-01-09T02:09:50.560Z,2.97
2019-01-09T02:15:45.954Z,2.77
2019-01-09T02:21:06.253Z,4.07
2019-01-09T02:26:47.636Z,3.33
2019-01-09T02:32:00.723Z,3.47
2019-01-09T02:37:02.675Z,4.50
2019-01-09T02:42:04.631Z,3.27
2019-01-09T02:47:06.651Z,3.67
2019-01-09T02:52:08.698Z,3.17
2019-01-09T02:57:10.765Z,4.27
2019-01-09T03:02:12.753Z,4.27
2019-01-09T03:07:14.779Z,4.00
2019-01-09T03:12:16.824Z,3.77
2019-01-09T03:17:18.834Z,4.20
2019-01-09T03:22:20.871Z,4.63
2019-01-09T03:27:22.910Z,4.37
2019-01-09T03:32:25.023Z,4.43
2019-01-09T03:37:27.417Z,4.77
2019-01-09T03:42:29.322Z,3.30
2019-01-09T03:47:31.340Z,2.93
2019-01-09T03:52:33.645Z,3.67
2019-01-09T03:57:35.587Z,4.53
2019-01-09T04:02:37.512Z,4.07
2019-01-09T04:07:39.563Z,4.70
2019-01-09T04:12:41.605Z,4.60
2019-01-09T04:17:43.539Z,5.30
2019-01-09T04:22:45.451Z,4.77
2019-01-09T04:27:47.566Z,5.07
2019-01-09T04:32:49.428Z,4.43
2019-01-09T04:37:52.130Z,4.43
2019-01-09T04:42:54.150Z,5.33
2019-01-09T04:47:56.069Z,5.23
2019-01-09T04:52:58.049Z,4.30
2019-01-09T04:58:00.062Z,5.07
2019-01-09T05:03:02.209Z,4.30
2019-01-09T05:08:04.242Z,4.70
2019-01-09T05:13:06.207Z,5.00
2019-01-09T05:18:08.253Z,3.57
2019-01-09T05:23:10.261Z,3.30
2019-01-09T05:28:12.182Z,4.80
2019-01-09T05:33:14.096Z,4.77
2019-01-09T05:38:16.089Z,4.60
2019-01-09T05:43:18.128Z,4.93
2019-01-09T05:48:20.029Z,4.37
2019-01-09T05:53:22.133Z,4.07
2019-01-09T05:58:24.036Z,4.80
2019-01-09T06:03:26.062Z,4.83
2019-01-09T06:08:27.989Z,5.43
2019-01-09T06:13:30.120Z,6.03
2019-01-09T06:18:32.129Z,5.07
2019-01-09T06:23:34.079Z,3.70
2019-01-09T06:28:37.145Z,4.90
2019-01-09T06:33:39.149Z,6.03
2019-01-09T06:38:41.106Z,5.47
2019-01-09T06:43:43.042Z,5.97
2019-01-09T06:48:44.961Z,4.30
2019-01-09T06:53:46.951Z,4.20
2019-01-09T06:58:48.905Z,2.90
2019-01-09T07:03:50.993Z,2.80
2019-01-09T07:08:59.045Z,3.07
2019-01-09T07:14:01.114Z,5.53
2019-01-09T07:19:03.211Z,7.10
2019-01-09T07:24:05.281Z,6.30
2019-01-09T07:29:07.246Z,6.17
2019-01-09T07:34:09.233Z,6.53
2019-01-09T07:39:11.180Z,5.00
2019-01-09T07:44:13.420Z,6.70
2019-01-09T07:49:15.340Z,6.33
2019-01-09T07:54:17.394Z,4.60
2019-01-09T07:59:20.530Z,4.50
2019-01-09T08:04:22.435Z,4.00
2019-01-09T08:09:24.362Z,3.40
2019-01-09T08:14:26.329Z,3.67
2019-01-09T08:19:28.229Z,4.10
2019-01-09T08:24:31.209Z,3.40
2019-01-09T08:29:33.245Z,3.70
2019-01-09T08:34:36.580Z,3.53
2019-01-09T08:39:38.763Z,3.17
2019-01-09T08:44:40.829Z,3.40
2019-01-09T08:49:42.880Z,3.00
2019-01-09T08:54:44.992Z,3.20
2019-01-09T08:59:46.956Z,3.50
2019-01-09T09:04:48.896Z,3.20
2019-01-09T09:09:50.978Z,3.30
2019-01-09T09:14:52.921Z,3.90
2019-01-09T09:19:54.861Z,3.77
2019-01-09T09:24:59.439Z,4.40
2019-01-09T09:30:01.537Z,3.33
2019-01-09T09:35:03.765Z,3.73
2019-01-09T09:40:07.665Z,2.70
2019-01-09T09:45:10.250Z,2.40
2019-01-09T09:50:13.491Z,2.57
2019-01-09T09:55:15.474Z,3.30
2019-01-09T10:00:19.080Z,3.57
2019-01-09T10:05:21.020Z,3.57
2019-01-09T10:10:22.938Z,3.17
2019-01-09T10:15:24.852Z,3.77
2019-01-09T10:20:26.774Z,3.87
2019-01-09T10:25:28.866Z,3.30
2019-01-09T10:30:30.971Z,4.77
2019-01-09T10:35:32.942Z,3.50
2019-01-09T10:40:36.310Z,3.13
2019-01-09T10:45:39.709Z,3.50
2019-01-09T10:50:41.628Z,3.07
2019-01-09T10:55:43.569Z,2.90
2019-01-09T11:00:46.284Z,3.67
2019-01-09T11:05:48.317Z,3.40
2019-01-09T11:10:50.215Z,2.60
2019-01-09T11:15:52.229Z,3.00
2019-01-09T11:20:54.154Z,2.57
2019-01-09T11:25:56.062Z,3.10
2019-01-09T11:30:58.185Z,3.00
2019-01-09T11:36:00.121Z,3.00
2019-01-09T11:41:02.257Z,2.30
2019-01-09T11:46:04.381Z,3.37
2019-01-09T11:51:06.298Z,2.53
2019-01-09T11:56:08.415Z,2.40
2019-01-09T12:01:10.542Z,2.00
2019-01-09T12:06:12.500Z,2.50
2019-01-09T12:11:14.416Z,2.60
2019-01-09T12:16:16.353Z,2.23
2019-01-09T12:21:18.287Z,2.63
2019-01-09T12:26:20.416Z,2.10
2019-01-09T12:31:22.445Z,2.80
2019-01-09T12:36:24.422Z,2.77
2019-01-09T12:41:26.343Z,2.60
2019-01-09T12:46:28.286Z,3.30
2019-01-09T12:51:30.202Z,2.43
2019-01-09T12:56:32.520Z,2.43
2019-01-09T13:01:34.460Z,2.43
2019-01-09T13:06:36.489Z,2.67
2019-01-09T13:11:38.383Z,2.43
2019-01-09T13:16:47.675Z,2.53
2019-01-09T13:21:44.425Z,2.60
2019-01-09T13:26:46.348Z,2.83
2019-01-09T13:31:48.331Z,2.73
2019-01-09T13:36:50.351Z,3.30
2019-01-09T13:41:55.086Z,3.53
2019-01-09T13:46:57.207Z,3.60
2019-01-09T13:51:59.136Z,3.57
2019-01-09T13:57:01.042Z,3.20
2019-01-09T14:02:03.108Z,3.27
2019-01-09T14:07:05.061Z,3.10
2019-01-09T14:12:06.955Z,4.07
2019-01-09T14:17:08.985Z,3.43
2019-01-09T14:22:11.266Z,3.97
2019-01-09T14:27:13.197Z,3.30
2019-01-09T14:32:15.269Z,3.30
2019-01-09T14:37:17.249Z,3.20
2019-01-09T14:42:19.295Z,4.00
2019-01-09T14:47:21.189Z,3.30
2019-01-09T14:52:23.115Z,3.43
2019-01-09T14:57:25.226Z,3.33
2019-01-09T15:02:27.139Z,3.73
2019-01-09T15:07:29.217Z,3.20
2019-01-09T15:12:31.329Z,3.50
2019-01-09T15:17:33.240Z,3.30
2019-01-09T15:22:35.378Z,3.53
2019-01-09T15:27:37.503Z,3.03
2019-01-09T15:32:39.537Z,3.40
2019-01-09T15:37:41.588Z,4.23
2019-01-09T15:42:43.721Z,3.60
2019-01-09T15:47:45.849Z,3.70
2019-01-09T15:52:47.771Z,3.60
2019-01-09T15:57:50.040Z,3.57
2019-01-09T16:02:53.279Z,4.07
2019-01-09T16:07:55.266Z,4.03
2019-01-09T16:12:57.204Z,4.10
2019-01-09T16:17:59.592Z,3.50
2019-01-09T16:23:01.648Z,4.50
2019-01-09T16:28:03.720Z,4.37
2019-01-09T16:33:05.749Z,4.87
2019-01-09T16:38:07.697Z,5.27
2019-01-09T16:43:09.633Z,5.00
2019-01-09T16:48:11.948Z,3.93
2019-01-09T16:53:13.860Z,5.37
2019-01-09T16:58:15.937Z,5.73
2019-01-09T17:03:18.390Z,4.70
2019-01-09T17:08:20.404Z,4.97
2019-01-09T17:13:22.324Z,5.00
2019-01-09T17:18:24.572Z,4.80
2019-01-09T17:23:26.501Z,4.70
2019-01-09T17:28:28.859Z,5.50
2019-01-09T17:33:30.760Z,4.20
2019-01-09T17:38:32.877Z,5.23
2019-01-09T17:43:34.787Z,5.37
2019-01-09T17:48:38.601Z,4.03
2019-01-09T17:53:40.509Z,4.20
2019-01-09T17:58:42.421Z,3.93
2019-01-09T18:03:44.337Z,3.97
2019-01-09T18:08:46.745Z,3.53
2019-01-09T18:13:49.947Z,3.80
2019-01-09T18:18:52.159Z,4.83
2019-01-09T18:23:54.094Z,5.27
2019-01-09T18:28:56.009Z,5.03
2019-01-09T18:34:11.755Z,3.83
2019-01-09T18:39:57.803Z,4.13
2019-01-09T18:45:28.587Z,5.07
2019-01-09T18:51:15.108Z,5.30
2019-01-09T18:56:17.116Z,4.40
2019-01-09T19:01:19.270Z,3.93
2019-01-09T19:06:21.363Z,4.87
2019-01-09T19:11:23.272Z,5.50
2019-01-09T19:16:25.549Z,5.80
2019-01-09T19:21:27.630Z,6.03
2019-01-09T19:26:29.651Z,6.27
2019-01-09T19:31:31.556Z,5.97
2019-01-09T19:36:33.633Z,5.73
2019-01-09T19:47:18.092Z,5.07
2019-01-09T19:52:20.005Z,6.30
2019-01-09T19:57:22.134Z,6.90
2019-01-09T20:02:24.008Z,6.23
2019-01-09T20:07:26.040Z,5.77
2019-01-09T20:12:28.164Z,6.47
2019-01-09T20:17:30.180Z,7.63
2019-01-09T20:22:32.281Z,7.10
2019-01-09T20:27:34.375Z,7.03
2019-01-09T20:32:36.504Z,7.20
2019-01-09T20:37:38.669Z,5.27
2019-01-09T20:42:40.905Z,7.40
2019-01-09T20:47:43.081Z,7.20
2019-01-09T20:52:44.959Z,7.13
2019-01-09T20:57:47.047Z,6.30
2019-01-09T21:02:49.746Z,7.47
2019-01-09T21:07:51.748Z,5.83
2019-01-09T21:12:53.924Z,6.47
2019-01-09T21:17:56.026Z,6.47
2019-01-09T21:22:58.026Z,7.17
2019-01-09T21:28:00.024Z,6.23
2019-01-09T21:33:01.954Z,6.87
2019-01-09T21:38:03.999Z,6.00
2019-01-09T21:43:06.053Z,5.53
2019-01-09T21:48:08.294Z,4.80
2019-01-09T21:53:10.188Z,5.00
2019-01-09T21:58:12.217Z,5.13
2019-01-09T22:03:14.330Z,5.87
2019-01-09T22:08:16.423Z,4.90
2019-01-09T22:13:19.837Z,5.27
2019-01-09T22:18:22.248Z,5.37
2019-01-09T22:23:24.341Z,4.60
2019-01-09T22:28:26.353Z,4.93
2019-01-09T22:33:28.371Z,4.63
2019-01-09T22:38:30.327Z,4.23
2019-01-09T22:43:32.368Z,4.63
2019-01-09T22:48:36.257Z,3.93
2019-01-09T22:53:40.086Z,5.00
2019-01-09T22:58:41.989Z,4.77
2019-01-09T23:03:44.515Z,4.23
2019-01-09T23:08:46.610Z,4.43
2019-01-09T23:13:48.828Z,4.77
2019-01-09T23:18:50.929Z,5.00
2019-01-09T23:23:53.005Z,4.40
2019-01-09T23:28:54.941Z,4.53
2019-01-09T23:33:56.991Z,4.10
2019-01-09T23:39:02.349Z,3.43
2019-01-09T23:44:05.739Z,3.13
2019-01-09T23:49:08.084Z,3.30
2019-01-09T23:54:10.731Z,3.17
2019-01-09T23:59:12.645Z,3.57
